Bradford, PA

11:09 AM EST on March 04, 2015 (GMT -0500)
Downtown Duke Center | Change Station
CLOSE
Current Station
Personal Weather Station
Location: Duke Center, PA
Elevation: 1604 ft
Nearby Weather Stations

Elev 1604 ft 41.95 °N, 78.48 °W | Updated 1 second ago

Overcast
Overcast
33.8 °F
Feels Like 29 °F
N
4.7
Wind Variable Wind from West
Gusts 4.7 mph

Today
High -- | Low -- °F
--% Chance of Precip.
Yesterday
High -- | Low -- °F
Precip. -- in
6:45 AM 6:08 PM
Waxing Gibbous, 99% visible
Pressure 29.88 in
Visibility 9.0 miles
Clouds Overcast 1000 ft
Windchill 29 °F
Dew Point 29 °F
Humidity 82%
Rainfall 0.00 in
Snow Depth Not available.
UV 1 out of 12
Pollen .40 out of 12
Air Quality Not available.
Flu Activity Not available.
METAR KBFD 041553Z AUTO 28007KT 9SM OVC010 M01/M03 A2983 RMK AO2 SLP117 T10061033

More Conditions Fewer Conditions

Pressure 29.88 in
Visibility 9.0 miles
Clouds Overcast 1000 ft
Windchill 29 °F
Dew Point 29 °F
Humidity 82%
Rainfall 0.00 in
Snow Depth Not available.
UV 1 out of 12
Pollen .40 out of 12
Air Quality Not available.
Flu Activity Not available.
METAR KBFD 041553Z AUTO 28007KT 9SM OVC010 M01/M03 A2983 RMK AO2 SLP117 T10061033

More Conditions Fewer Conditions

10-Day Weather Forecast

Almanac

Astronomy

Mar. 04, 2015 Rise Set
Actual Time
Civil Twilight
Nautical Twilight
Astronomical Twilight
Moon
Length of Visible Light
Length of Day
Tomorrow will be .
, % of the Moon is Illuminated

Today's Extremes

State Highs State Lows

Community

WunderPhotos

Upload Photos

1,802,502 photos uploaded!

WunderBlogs® & News

Nearby

Air Quality

  Air Quality AQ Index Pollutant
Not available.

Snow Depth

Station Depth Elevation

Earthquake Activity

City Distance Mag. Time & Date
Minimum magnitude displayed is 2.5.

Coastal Water Temperatures

Place Temperature

Nearby Weather Stations